Kekaha, Hawaii
Current Conditions -  °F | °C
As of 11:56 PM on Tuesday 21 Oct 2014 (Local Time) from PHBK Reporting Station
Clear Clear  
Wind Chill: 75°   Ceiling: Unl
Heat Index: 75°   Visibility: 10mi
Dew Point: 74°   Wind: 0mph
Humidity: 96%   Direction: NA
Pressure: 29.99"   Gusts: NA
Location:  21.97°N, 159.69°W
Report Text: PHBK 220956Z AUTO 00000KT 10SM CLR 24/23 A2999 RMK AO2 RAE00 SLP158 P0000 T02390233 403170222
Loading
Personal Weather Stations






























Interactive Weather Map
Tropical Storm Tracking
New forecast layout! Learn more

10-Day Weather Forecast

Advertisements
Track Severe Weather on mobile